sensor_id;sensor_type;location;lat;lon;timestamp;noise_LAeq;noise_LA_min;noise_LA_max;noise_LA01;noise_LA95
60872;Laerm;46714;50.118;14.462;2023-07-20T00:00:22;67.54;49.96;79.67;;
60872;Laerm;46714;50.118;14.462;2023-07-20T00:02:51;66.39;48.83;78.36;;
60872;Laerm;46714;50.118;14.462;2023-07-20T00:05:16;67.90;50.44;78.84;;
60872;Laerm;46714;50.118;14.462;2023-07-20T00:07:47;66.91;56.98;75.88;;
60872;Laerm;46714;50.118;14.462;2023-07-20T00:10:12;66.53;54.64;72.74;;
60872;Laerm;46714;50.118;14.462;2023-07-20T00:12:38;63.77;44.39;72.69;;
60872;Laerm;46714;50.118;14.462;2023-07-20T00:15:04;65.15;45.23;74.61;;
60872;Laerm;46714;50.118;14.462;2023-07-20T00:17:30;66.70;53.86;75.68;;
60872;Laerm;46714;50.118;14.462;2023-07-20T00:19:55;66.83;55.11;78.37;;
60872;Laerm;46714;50.118;14.462;2023-07-20T00:22:20;67.78;46.66;76.32;;
60872;Laerm;46714;50.118;14.462;2023-07-20T00:24:46;66.68;51.56;79.84;;
60872;Laerm;46714;50.118;14.462;2023-07-20T00:27:11;65.59;48.95;75.47;;
60872;Laerm;46714;50.118;14.462;2023-07-20T00:29:36;65.10;47.16;73.91;;
60872;Laerm;46714;50.118;14.462;2023-07-20T00:32:02;63.82;44.54;73.41;;
60872;Laerm;46714;50.118;14.462;2023-07-20T00:34:30;65.14;47.22;73.75;;
60872;Laerm;46714;50.118;14.462;2023-07-20T00:36:56;66.56;49.53;77.57;;
60872;Laerm;46714;50.118;14.462;2023-07-20T00:39:21;64.48;44.31;72.77;;
60872;Laerm;46714;50.118;14.462;2023-07-20T00:41:46;66.59;50.16;79.15;;
60872;Laerm;46714;50.118;14.462;2023-07-20T00:44:11;68.93;50.10;82.31;;
60872;Laerm;46714;50.118;14.462;2023-07-20T00:46:37;66.53;43.81;77.14;;
60872;Laerm;46714;50.118;14.462;2023-07-20T00:49:03;66.47;52.28;77.15;;
60872;Laerm;46714;50.118;14.462;2023-07-20T00:51:29;66.50;55.95;74.54;;
60872;Laerm;46714;50.118;14.462;2023-07-20T00:53:54;65.25;48.40;73.76;;
60872;Laerm;46714;50.118;14.462;2023-07-20T00:56:20;64.78;47.28;76.68;;
60872;Laerm;46714;50.118;14.462;2023-07-20T00:58:46;66.68;53.46;76.95;;
60872;Laerm;46714;50.118;14.462;2023-07-20T01:01:12;65.85;52.76;75.59;;
60872;Laerm;46714;50.118;14.462;2023-07-20T01:03:37;66.17;43.29;76.22;;
60872;Laerm;46714;50.118;14.462;2023-07-20T01:06:09;66.00;46.93;78.14;;
60872;Laerm;46714;50.118;14.462;2023-07-20T01:14:11;65.95;47.14;76.64;;
60872;Laerm;46714;50.118;14.462;2023-07-20T01:16:37;66.61;52.65;80.17;;
60872;Laerm;46714;50.118;14.462;2023-07-20T01:19:02;65.10;49.62;76.20;;
60872;Laerm;46714;50.118;14.462;2023-07-20T01:24:51;64.79;51.53;74.24;;
60872;Laerm;46714;50.118;14.462;2023-07-20T01:30:27;67.13;55.45;76.92;;
60872;Laerm;46714;50.118;14.462;2023-07-20T01:32:58;62.28;42.82;71.69;;
60872;Laerm;46714;50.118;14.462;2023-07-20T01:35:27;67.65;46.02;77.86;;
60872;Laerm;46714;50.118;14.462;2023-07-20T01:37:53;66.86;51.13;77.73;;
60872;Laerm;46714;50.118;14.462;2023-07-20T01:40:22;66.35;48.21;78.70;;
60872;Laerm;46714;50.118;14.462;2023-07-20T01:42:48;64.59;45.72;74.73;;
60872;Laerm;46714;50.118;14.462;2023-07-20T01:45:14;64.90;51.14;74.14;;
60872;Laerm;46714;50.118;14.462;2023-07-20T01:47:40;65.66;43.68;77.67;;
60872;Laerm;46714;50.118;14.462;2023-07-20T01:50:06;66.87;45.57;77.44;;
60872;Laerm;46714;50.118;14.462;2023-07-20T01:52:31;65.13;42.47;77.19;;
60872;Laerm;46714;50.118;14.462;2023-07-20T01:54:57;65.06;52.21;74.22;;
60872;Laerm;46714;50.118;14.462;2023-07-20T01:57:23;65.88;51.32;73.85;;
60872;Laerm;46714;50.118;14.462;2023-07-20T01:59:48;66.09;46.82;75.04;;
60872;Laerm;46714;50.118;14.462;2023-07-20T02:02:13;63.30;44.54;70.34;;
60872;Laerm;46714;50.118;14.462;2023-07-20T02:04:39;66.90;47.70;74.79;;
60872;Laerm;46714;50.118;14.462;2023-07-20T02:07:05;67.46;55.98;74.38;;
60872;Laerm;46714;50.118;14.462;2023-07-20T02:09:30;66.05;47.42;75.49;;
60872;Laerm;46714;50.118;14.462;2023-07-20T02:11:55;64.91;46.71;77.18;;
60872;Laerm;46714;50.118;14.462;2023-07-20T02:14:21;66.09;53.40;79.58;;
60872;Laerm;46714;50.118;14.462;2023-07-20T02:16:48;66.83;52.41;80.19;;
60872;Laerm;46714;50.118;14.462;2023-07-20T02:19:17;65.84;48.03;77.29;;
60872;Laerm;46714;50.118;14.462;2023-07-20T02:21:43;63.01;44.69;70.66;;
60872;Laerm;46714;50.118;14.462;2023-07-20T02:24:09;67.52;55.23;77.11;;
60872;Laerm;46714;50.118;14.462;2023-07-20T02:26:34;66.27;54.45;74.11;;
60872;Laerm;46714;50.118;14.462;2023-07-20T02:28:59;67.57;47.32;81.49;;
60872;Laerm;46714;50.118;14.462;2023-07-20T02:31:25;70.22;56.70;81.12;;
60872;Laerm;46714;50.118;14.462;2023-07-20T02:33:50;66.05;48.58;74.95;;
60872;Laerm;46714;50.118;14.462;2023-07-20T02:36:15;65.20;50.34;72.80;;
60872;Laerm;46714;50.118;14.462;2023-07-20T02:38:42;68.58;55.11;77.88;;
60872;Laerm;46714;50.118;14.462;2023-07-20T02:41:07;66.93;55.94;77.18;;
60872;Laerm;46714;50.118;14.462;2023-07-20T02:43:32;67.68;53.75;76.87;;
60872;Laerm;46714;50.118;14.462;2023-07-20T02:45:58;67.62;57.02;73.55;;
60872;Laerm;46714;50.118;14.462;2023-07-20T02:48:23;68.81;58.02;77.97;;
60872;Laerm;46714;50.118;14.462;2023-07-20T02:50:49;68.48;55.95;81.72;;
60872;Laerm;46714;50.118;14.462;2023-07-20T02:53:14;66.67;48.46;76.91;;
60872;Laerm;46714;50.118;14.462;2023-07-20T02:55:39;67.02;54.94;74.99;;
60872;Laerm;46714;50.118;14.462;2023-07-20T02:58:05;67.05;53.90;73.91;;
60872;Laerm;46714;50.118;14.462;2023-07-20T03:00:30;67.19;55.96;73.93;;
60872;Laerm;46714;50.118;14.462;2023-07-20T03:02:55;68.95;56.59;79.09;;
60872;Laerm;46714;50.118;14.462;2023-07-20T03:05:22;68.08;51.75;76.21;;
60872;Laerm;46714;50.118;14.462;2023-07-20T03:07:50;69.49;58.96;81.63;;
60872;Laerm;46714;50.118;14.462;2023-07-20T03:10:16;69.53;57.70;80.39;;
60872;Laerm;46714;50.118;14.462;2023-07-20T03:12:42;68.50;57.92;76.02;;
60872;Laerm;46714;50.118;14.462;2023-07-20T03:15:08;70.44;60.64;79.58;;
60872;Laerm;46714;50.118;14.462;2023-07-20T03:17:33;71.69;66.06;78.62;;
60872;Laerm;46714;50.118;14.462;2023-07-20T03:19:59;70.32;55.39;79.69;;
60872;Laerm;46714;50.118;14.462;2023-07-20T03:22:25;71.13;60.27;78.19;;
60872;Laerm;46714;50.118;14.462;2023-07-20T03:24:51;70.13;61.29;76.81;;
60872;Laerm;46714;50.118;14.462;2023-07-20T03:27:17;70.46;60.72;80.77;;
60872;Laerm;46714;50.118;14.462;2023-07-20T03:29:43;71.10;61.94;77.62;;
60872;Laerm;46714;50.118;14.462;2023-07-20T03:32:09;70.79;64.96;76.21;;
60872;Laerm;46714;50.118;14.462;2023-07-20T03:34:35;70.78;61.87;75.93;;
60872;Laerm;46714;50.118;14.462;2023-07-20T03:37:00;80.73;64.34;99.10;;
60872;Laerm;46714;50.118;14.462;2023-07-20T03:39:26;73.32;62.50;83.80;;
60872;Laerm;46714;50.118;14.462;2023-07-20T03:41:52;72.99;66.91;80.03;;
60872;Laerm;46714;50.118;14.462;2023-07-20T03:44:17;72.13;61.26;80.79;;
60872;Laerm;46714;50.118;14.462;2023-07-20T03:46:43;72.57;63.37;79.87;;
60872;Laerm;46714;50.118;14.462;2023-07-20T03:49:09;72.19;66.21;77.01;;
60872;Laerm;46714;50.118;14.462;2023-07-20T03:51:35;72.67;66.82;79.11;;
60872;Laerm;46714;50.118;14.462;2023-07-20T03:54:01;72.82;64.80;81.04;;
60872;Laerm;46714;50.118;14.462;2023-07-20T03:56:26;72.52;64.33;80.01;;
60872;Laerm;46714;50.118;14.462;2023-07-20T03:58:51;72.88;66.93;77.94;;
60872;Laerm;46714;50.118;14.462;2023-07-20T04:01:17;72.64;65.51;77.69;;
60872;Laerm;46714;50.118;14.462;2023-07-20T04:03:43;73.10;65.56;79.51;;
60872;Laerm;46714;50.118;14.462;2023-07-20T04:06:08;72.05;65.71;78.83;;
60872;Laerm;46714;50.118;14.462;2023-07-20T04:08:34;73.61;67.90;80.75;;
60872;Laerm;46714;50.118;14.462;2023-07-20T04:11:01;73.83;67.10;82.31;;
60872;Laerm;46714;50.118;14.462;2023-07-20T04:13:27;72.59;66.48;77.12;;
60872;Laerm;46714;50.118;14.462;2023-07-20T04:15:53;74.30;67.97;87.52;;
60872;Laerm;46714;50.118;14.462;2023-07-20T04:18:18;73.74;67.07;79.84;;
60872;Laerm;46714;50.118;14.462;2023-07-20T04:20:43;74.27;66.97;81.29;;
60872;Laerm;46714;50.118;14.462;2023-07-20T04:23:09;74.63;69.67;80.15;;
60872;Laerm;46714;50.118;14.462;2023-07-20T04:25:34;73.73;66.95;82.92;;
60872;Laerm;46714;50.118;14.462;2023-07-20T04:28:04;74.14;67.82;85.94;;
60872;Laerm;46714;50.118;14.462;2023-07-20T04:30:33;74.98;66.22;86.15;;
60872;Laerm;46714;50.118;14.462;2023-07-20T04:32:59;74.94;68.00;83.70;;
60872;Laerm;46714;50.118;14.462;2023-07-20T04:35:53;74.06;65.83;82.23;;
60872;Laerm;46714;50.118;14.462;2023-07-20T04:38:19;73.69;66.52;80.28;;
60872;Laerm;46714;50.118;14.462;2023-07-20T04:40:46;74.70;65.18;82.94;;
60872;Laerm;46714;50.118;14.462;2023-07-20T04:43:12;73.60;68.08;79.11;;
60872;Laerm;46714;50.118;14.462;2023-07-20T04:45:37;73.47;67.34;78.56;;
60872;Laerm;46714;50.118;14.462;2023-07-20T04:48:03;73.20;67.60;77.38;;
60872;Laerm;46714;50.118;14.462;2023-07-20T04:50:28;73.51;67.33;78.38;;
60872;Laerm;46714;50.118;14.462;2023-07-20T04:52:54;73.85;67.82;78.48;;
60872;Laerm;46714;50.118;14.462;2023-07-20T04:55:19;73.43;68.81;79.20;;
60872;Laerm;46714;50.118;14.462;2023-07-20T04:57:44;73.46;65.94;80.43;;
60872;Laerm;46714;50.118;14.462;2023-07-20T05:00:10;73.67;67.44;79.00;;
60872;Laerm;46714;50.118;14.462;2023-07-20T05:02:38;73.69;65.97;78.46;;
60872;Laerm;46714;50.118;14.462;2023-07-20T05:05:03;74.10;67.50;79.53;;
60872;Laerm;46714;50.118;14.462;2023-07-20T05:07:31;73.22;66.91;77.28;;
60872;Laerm;46714;50.118;14.462;2023-07-20T05:09:56;73.28;66.49;78.38;;
60872;Laerm;46714;50.118;14.462;2023-07-20T05:12:22;73.96;66.73;79.06;;
60872;Laerm;46714;50.118;14.462;2023-07-20T05:14:47;74.16;68.73;83.04;;
60872;Laerm;46714;50.118;14.462;2023-07-20T05:17:12;74.79;69.34;81.48;;
60872;Laerm;46714;50.118;14.462;2023-07-20T05:19:38;74.71;69.10;81.04;;
60872;Laerm;46714;50.118;14.462;2023-07-20T05:22:03;74.66;68.94;80.12;;
60872;Laerm;46714;50.118;14.462;2023-07-20T05:24:30;74.44;70.63;80.07;;
60872;Laerm;46714;50.118;14.462;2023-07-20T05:26:56;74.48;70.90;81.61;;
60872;Laerm;46714;50.118;14.462;2023-07-20T05:29:21;74.92;69.55;82.43;;
60872;Laerm;46714;50.118;14.462;2023-07-20T05:31:47;74.03;69.76;78.14;;
60872;Laerm;46714;50.118;14.462;2023-07-20T05:34:12;74.33;68.66;81.96;;
60872;Laerm;46714;50.118;14.462;2023-07-20T05:36:37;74.13;68.68;78.92;;
60872;Laerm;46714;50.118;14.462;2023-07-20T05:39:03;74.76;67.97;82.11;;
60872;Laerm;46714;50.118;14.462;2023-07-20T05:41:28;75.01;70.39;80.37;;
60872;Laerm;46714;50.118;14.462;2023-07-20T05:43:53;74.13;69.86;80.23;;
60872;Laerm;46714;50.118;14.462;2023-07-20T05:46:19;78.62;69.64;98.98;;
60872;Laerm;46714;50.118;14.462;2023-07-20T05:48:44;73.85;69.28;78.45;;
60872;Laerm;46714;50.118;14.462;2023-07-20T05:51:09;73.98;68.63;78.41;;
60872;Laerm;46714;50.118;14.462;2023-07-20T05:53:35;74.40;69.84;81.22;;
60872;Laerm;46714;50.118;14.462;2023-07-20T05:56:01;74.34;70.43;81.29;;
60872;Laerm;46714;50.118;14.462;2023-07-20T05:58:28;75.04;66.42;92.49;;
60872;Laerm;46714;50.118;14.462;2023-07-20T06:00:53;73.03;62.96;78.98;;
60872;Laerm;46714;50.118;14.462;2023-07-20T06:03:18;76.68;64.85;93.80;;
60872;Laerm;46714;50.118;14.462;2023-07-20T06:05:46;73.20;63.76;80.59;;
60872;Laerm;46714;50.118;14.462;2023-07-20T06:08:12;72.01;59.07;79.40;;
60872;Laerm;46714;50.118;14.462;2023-07-20T06:10:37;80.35;66.41;102.82;;
60872;Laerm;46714;50.118;14.462;2023-07-20T06:13:02;73.04;68.65;76.63;;
60872;Laerm;46714;50.118;14.462;2023-07-20T06:15:30;73.00;65.63;77.88;;
60872;Laerm;46714;50.118;14.462;2023-07-20T06:17:56;79.02;65.11;100.54;;
60872;Laerm;46714;50.118;14.462;2023-07-20T06:20:23;72.15;66.05;76.15;;
60872;Laerm;46714;50.118;14.462;2023-07-20T06:22:50;73.59;68.30;78.40;;
60872;Laerm;46714;50.118;14.462;2023-07-20T06:25:15;77.78;65.48;96.68;;
60872;Laerm;46714;50.118;14.462;2023-07-20T06:27:42;73.23;64.88;78.80;;
60872;Laerm;46714;50.118;14.462;2023-07-20T06:30:08;73.16;65.61;80.29;;
60872;Laerm;46714;50.118;14.462;2023-07-20T06:32:33;77.04;66.41;95.16;;
60872;Laerm;46714;50.118;14.462;2023-07-20T06:34:59;73.61;69.45;77.54;;
60872;Laerm;46714;50.118;14.462;2023-07-20T06:37:24;79.93;69.52;98.02;;
60872;Laerm;46714;50.118;14.462;2023-07-20T06:39:49;73.66;67.54;82.03;;
60872;Laerm;46714;50.118;14.462;2023-07-20T06:42:15;73.02;67.71;80.87;;
60872;Laerm;46714;50.118;14.462;2023-07-20T06:44:40;76.03;65.96;96.85;;
60872;Laerm;46714;50.118;14.462;2023-07-20T06:47:06;73.03;66.94;80.54;;
60872;Laerm;46714;50.118;14.462;2023-07-20T06:49:31;73.94;67.31;80.98;;
60872;Laerm;46714;50.118;14.462;2023-07-20T06:51:57;72.89;61.87;78.36;;
60872;Laerm;46714;50.118;14.462;2023-07-20T06:54:22;72.72;63.84;79.01;;
60872;Laerm;46714;50.118;14.462;2023-07-20T06:56:48;73.33;68.06;78.20;;
60872;Laerm;46714;50.118;14.462;2023-07-20T06:59:13;74.12;67.78;85.50;;
60872;Laerm;46714;50.118;14.462;2023-07-20T07:01:39;73.61;65.94;84.35;;
60872;Laerm;46714;50.118;14.462;2023-07-20T07:04:04;77.56;68.22;101.56;;
60872;Laerm;46714;50.118;14.462;2023-07-20T07:06:30;75.82;66.00;94.39;;
60872;Laerm;46714;50.118;14.462;2023-07-20T07:08:56;80.80;67.59;99.61;;
60872;Laerm;46714;50.118;14.462;2023-07-20T07:11:21;73.39;67.00;79.29;;
60872;Laerm;46714;50.118;14.462;2023-07-20T07:13:47;72.76;67.40;77.12;;
60872;Laerm;46714;50.118;14.462;2023-07-20T07:16:17;73.39;67.13;82.92;;
60872;Laerm;46714;50.118;14.462;2023-07-20T07:18:47;73.07;67.27;77.57;;
60872;Laerm;46714;50.118;14.462;2023-07-20T07:21:13;72.26;66.09;80.92;;
60872;Laerm;46714;50.118;14.462;2023-07-20T07:23:39;72.25;60.79;78.94;;
60872;Laerm;46714;50.118;14.462;2023-07-20T07:26:05;72.39;64.99;78.73;;
60872;Laerm;46714;50.118;14.462;2023-07-20T07:28:30;72.38;65.98;81.16;;
60872;Laerm;46714;50.118;14.462;2023-07-20T07:30:57;74.93;67.31;94.70;;
60872;Laerm;46714;50.118;14.462;2023-07-20T07:33:22;73.76;67.83;82.28;;
60872;Laerm;46714;50.118;14.462;2023-07-20T07:35:52;73.60;65.81;81.26;;
60872;Laerm;46714;50.118;14.462;2023-07-20T07:38:18;74.38;69.10;81.88;;
60872;Laerm;46714;50.118;14.462;2023-07-20T07:40:44;74.57;71.60;79.31;;
60872;Laerm;46714;50.118;14.462;2023-07-20T07:43:09;76.03;69.65;92.50;;
60872;Laerm;46714;50.118;14.462;2023-07-20T07:45:35;73.61;68.93;78.03;;
60872;Laerm;46714;50.118;14.462;2023-07-20T07:48:05;76.60;70.15;93.76;;
60872;Laerm;46714;50.118;14.462;2023-07-20T07:50:31;73.74;68.54;78.75;;
60872;Laerm;46714;50.118;14.462;2023-07-20T07:52:56;74.12;69.68;83.12;;
60872;Laerm;46714;50.118;14.462;2023-07-20T07:55:22;83.49;66.69;103.12;;
60872;Laerm;46714;50.118;14.462;2023-07-20T07:57:47;74.75;70.04;81.68;;
60872;Laerm;46714;50.118;14.462;2023-07-20T08:00:13;73.95;67.99;78.09;;
60872;Laerm;46714;50.118;14.462;2023-07-20T08:02:40;73.64;68.92;79.40;;
60872;Laerm;46714;50.118;14.462;2023-07-20T08:05:06;75.86;70.49;92.14;;
60872;Laerm;46714;50.118;14.462;2023-07-20T08:07:32;73.98;68.20;80.60;;
60872;Laerm;46714;50.118;14.462;2023-07-20T08:09:57;73.70;67.38;80.70;;
60872;Laerm;46714;50.118;14.462;2023-07-20T08:12:23;75.88;67.84;94.34;;
60872;Laerm;46714;50.118;14.462;2023-07-20T08:14:48;74.13;69.90;77.78;;
60872;Laerm;46714;50.118;14.462;2023-07-20T08:17:13;74.28;70.07;80.46;;
60872;Laerm;46714;50.118;14.462;2023-07-20T08:19:39;73.78;68.43;80.48;;
60872;Laerm;46714;50.118;14.462;2023-07-20T08:22:07;73.93;70.13;77.53;;
60872;Laerm;46714;50.118;14.462;2023-07-20T08:24:32;74.23;68.43;80.65;;
60872;Laerm;46714;50.118;14.462;2023-07-20T08:26:58;73.68;69.81;76.88;;
60872;Laerm;46714;50.118;14.462;2023-07-20T08:29:24;74.33;69.25;79.74;;
60872;Laerm;46714;50.118;14.462;2023-07-20T08:31:49;73.65;68.59;78.89;;
60872;Laerm;46714;50.118;14.462;2023-07-20T08:34:15;73.96;70.20;78.20;;
60872;Laerm;46714;50.118;14.462;2023-07-20T08:36:40;74.15;69.55;83.62;;
60872;Laerm;46714;50.118;14.462;2023-07-20T08:39:06;74.20;69.73;81.28;;
60872;Laerm;46714;50.118;14.462;2023-07-20T08:41:34;74.40;70.09;80.71;;
60872;Laerm;46714;50.118;14.462;2023-07-20T08:44:01;74.52;69.72;82.58;;
60872;Laerm;46714;50.118;14.462;2023-07-20T08:46:27;74.32;69.83;79.01;;
60872;Laerm;46714;50.118;14.462;2023-07-20T08:48:54;78.68;70.26;99.65;;
60872;Laerm;46714;50.118;14.462;2023-07-20T08:51:21;73.82;69.07;78.09;;
60872;Laerm;46714;50.118;14.462;2023-07-20T08:53:47;76.55;70.55;91.81;;
60872;Laerm;46714;50.118;14.462;2023-07-20T08:56:14;74.15;70.64;80.98;;
60872;Laerm;46714;50.118;14.462;2023-07-20T08:58:43;76.21;70.26;95.05;;
60872;Laerm;46714;50.118;14.462;2023-07-20T09:01:10;73.84;68.52;77.86;;
60872;Laerm;46714;50.118;14.462;2023-07-20T09:03:36;73.92;67.78;90.15;;
60872;Laerm;46714;50.118;14.462;2023-07-20T09:06:04;73.73;68.60;81.20;;
60872;Laerm;46714;50.118;14.462;2023-07-20T09:08:30;74.89;70.29;81.65;;
60872;Laerm;46714;50.118;14.462;2023-07-20T09:10:56;73.57;69.24;79.78;;
60872;Laerm;46714;50.118;14.462;2023-07-20T09:13:21;74.52;69.19;81.57;;
60872;Laerm;46714;50.118;14.462;2023-07-20T09:15:53;80.36;70.40;104.31;;
60872;Laerm;46714;50.118;14.462;2023-07-20T09:18:26;74.33;69.68;85.42;;
60872;Laerm;46714;50.118;14.462;2023-07-20T09:20:53;75.52;69.56;90.29;;
60872;Laerm;46714;50.118;14.462;2023-07-20T09:23:19;74.57;70.00;80.96;;
60872;Laerm;46714;50.118;14.462;2023-07-20T09:25:45;74.00;69.01;79.61;;
60872;Laerm;46714;50.118;14.462;2023-07-20T09:28:15;74.38;68.60;80.15;;
60872;Laerm;46714;50.118;14.462;2023-07-20T09:30:41;73.92;67.80;80.82;;
60872;Laerm;46714;50.118;14.462;2023-07-20T09:33:18;78.71;68.72;99.28;;
60872;Laerm;46714;50.118;14.462;2023-07-20T09:35:43;80.54;69.50;97.93;;
60872;Laerm;46714;50.118;14.462;2023-07-20T09:38:09;73.73;68.05;80.74;;
60872;Laerm;46714;50.118;14.462;2023-07-20T09:40:37;74.01;68.92;79.81;;
60872;Laerm;46714;50.118;14.462;2023-07-20T09:43:09;73.74;67.74;81.20;;
60872;Laerm;46714;50.118;14.462;2023-07-20T09:45:44;73.27;69.04;81.03;;
60872;Laerm;46714;50.118;14.462;2023-07-20T09:48:10;80.92;69.75;99.16;;
60872;Laerm;46714;50.118;14.462;2023-07-20T09:50:40;74.57;68.74;82.44;;
60872;Laerm;46714;50.118;14.462;2023-07-20T09:53:12;73.28;68.38;81.60;;
60872;Laerm;46714;50.118;14.462;2023-07-20T09:55:40;73.65;68.80;78.53;;
60872;Laerm;46714;50.118;14.462;2023-07-20T09:58:08;74.66;69.47;84.17;;
60872;Laerm;46714;50.118;14.462;2023-07-20T10:00:36;73.25;67.72;79.28;;
60872;Laerm;46714;50.118;14.462;2023-07-20T10:03:04;73.84;66.56;78.22;;
60872;Laerm;46714;50.118;14.462;2023-07-20T10:05:33;74.52;69.49;81.16;;
60872;Laerm;46714;50.118;14.462;2023-07-20T10:08:03;74.00;67.49;82.80;;
60872;Laerm;46714;50.118;14.462;2023-07-20T10:10:31;74.36;69.91;78.56;;
60872;Laerm;46714;50.118;14.462;2023-07-20T10:12:58;72.70;65.92;78.05;;
60872;Laerm;46714;50.118;14.462;2023-07-20T10:15:37;73.89;68.94;78.34;;
60872;Laerm;46714;50.118;14.462;2023-07-20T10:18:31;80.96;68.84;103.96;;
60872;Laerm;46714;50.118;14.462;2023-07-20T10:21:00;76.42;68.46;97.12;;
60872;Laerm;46714;50.118;14.462;2023-07-20T10:23:28;74.46;70.61;81.37;;
60872;Laerm;46714;50.118;14.462;2023-07-20T10:25:55;76.71;69.53;96.74;;
60872;Laerm;46714;50.118;14.462;2023-07-20T10:28:22;73.91;69.41;78.57;;
60872;Laerm;46714;50.118;14.462;2023-07-20T10:30:48;78.54;68.82;98.07;;
60872;Laerm;46714;50.118;14.462;2023-07-20T10:33:15;74.98;69.78;82.22;;
60872;Laerm;46714;50.118;14.462;2023-07-20T10:36:11;73.47;68.16;78.69;;
60872;Laerm;46714;50.118;14.462;2023-07-20T10:41:21;74.61;67.32;88.61;;
60872;Laerm;46714;50.118;14.462;2023-07-20T10:43:48;74.18;69.41;79.41;;
60872;Laerm;46714;50.118;14.462;2023-07-20T10:46:14;74.25;69.32;80.29;;
60872;Laerm;46714;50.118;14.462;2023-07-20T10:48:58;73.45;69.09;78.56;;
60872;Laerm;46714;50.118;14.462;2023-07-20T10:51:24;74.20;68.44;78.39;;
60872;Laerm;46714;50.118;14.462;2023-07-20T10:53:50;74.47;69.17;81.54;;
60872;Laerm;46714;50.118;14.462;2023-07-20T10:56:20;82.91;69.50;99.83;;
60872;Laerm;46714;50.118;14.462;2023-07-20T10:58:46;75.66;69.86;94.40;;
60872;Laerm;46714;50.118;14.462;2023-07-20T11:01:16;74.30;68.29;81.59;;
60872;Laerm;46714;50.118;14.462;2023-07-20T11:03:43;73.54;66.90;83.18;;
60872;Laerm;46714;50.118;14.462;2023-07-20T11:09:13;77.52;69.47;96.79;;
60872;Laerm;46714;50.118;14.462;2023-07-20T11:14:09;73.93;67.25;81.06;;
60872;Laerm;46714;50.118;14.462;2023-07-20T11:16:44;75.17;69.88;84.44;;
60872;Laerm;46714;50.118;14.462;2023-07-20T11:19:25;74.88;69.09;89.14;;
60872;Laerm;46714;50.118;14.462;2023-07-20T11:21:55;73.94;70.03;80.52;;
60872;Laerm;46714;50.118;14.462;2023-07-20T11:24:21;74.26;69.39;80.84;;
60872;Laerm;46714;50.118;14.462;2023-07-20T11:26:49;73.76;69.52;80.81;;
60872;Laerm;46714;50.118;14.462;2023-07-20T11:29:20;77.14;70.73;92.25;;
60872;Laerm;46714;50.118;14.462;2023-07-20T11:31:47;75.72;69.19;94.63;;
60872;Laerm;46714;50.118;14.462;2023-07-20T11:34:17;74.27;69.94;82.47;;
60872;Laerm;46714;50.118;14.462;2023-07-20T11:36:45;73.89;69.24;79.31;;
60872;Laerm;46714;50.118;14.462;2023-07-20T11:39:14;74.03;68.44;80.00;;
60872;Laerm;46714;50.118;14.462;2023-07-20T11:41:46;74.08;69.72;84.33;;
60872;Laerm;46714;50.118;14.462;2023-07-20T11:44:12;74.12;70.21;79.37;;
60872;Laerm;46714;50.118;14.462;2023-07-20T11:46:42;76.73;69.75;94.40;;
60872;Laerm;46714;50.118;14.462;2023-07-20T11:49:08;74.02;69.74;79.96;;
60872;Laerm;46714;50.118;14.462;2023-07-20T11:51:34;74.33;69.13;79.26;;
60872;Laerm;46714;50.118;14.462;2023-07-20T11:54:01;75.02;68.97;90.32;;
60872;Laerm;46714;50.118;14.462;2023-07-20T11:56:28;74.05;68.90;79.61;;
60872;Laerm;46714;50.118;14.462;2023-07-20T11:59:00;77.19;70.28;95.26;;
60872;Laerm;46714;50.118;14.462;2023-07-20T12:01:27;73.28;67.90;76.90;;
60872;Laerm;46714;50.118;14.462;2023-07-20T12:04:01;73.40;66.89;81.97;;
60872;Laerm;46714;50.118;14.462;2023-07-20T12:06:29;73.54;69.87;77.59;;
60872;Laerm;46714;50.118;14.462;2023-07-20T12:08:57;73.97;69.73;81.01;;
60872;Laerm;46714;50.118;14.462;2023-07-20T12:11:39;74.38;69.01;82.78;;
60872;Laerm;46714;50.118;14.462;2023-07-20T12:14:07;73.73;70.46;78.77;;
60872;Laerm;46714;50.118;14.462;2023-07-20T12:16:33;73.68;68.80;78.16;;
60872;Laerm;46714;50.118;14.462;2023-07-20T12:19:02;74.04;70.30;78.29;;
60872;Laerm;46714;50.118;14.462;2023-07-20T12:21:29;73.96;70.53;79.21;;
60872;Laerm;46714;50.118;14.462;2023-07-20T12:23:56;73.46;68.94;79.14;;
60872;Laerm;46714;50.118;14.462;2023-07-20T12:26:23;74.40;70.03;81.66;;
60872;Laerm;46714;50.118;14.462;2023-07-20T12:28:50;74.23;69.73;78.71;;
60872;Laerm;46714;50.118;14.462;2023-07-20T12:31:16;75.10;69.37;86.30;;
60872;Laerm;46714;50.118;14.462;2023-07-20T12:33:42;74.72;69.75;87.17;;
60872;Laerm;46714;50.118;14.462;2023-07-20T12:36:08;73.56;69.04;82.13;;
60872;Laerm;46714;50.118;14.462;2023-07-20T12:38:34;74.13;70.16;77.61;;
60872;Laerm;46714;50.118;14.462;2023-07-20T12:41:02;73.28;69.89;76.94;;
60872;Laerm;46714;50.118;14.462;2023-07-20T12:43:28;73.61;69.18;78.22;;
60872;Laerm;46714;50.118;14.462;2023-07-20T12:45:55;73.91;69.34;78.42;;
60872;Laerm;46714;50.118;14.462;2023-07-20T12:48:20;73.49;69.78;78.66;;
60872;Laerm;46714;50.118;14.462;2023-07-20T12:50:46;73.70;69.25;88.95;;
60872;Laerm;46714;50.118;14.462;2023-07-20T12:53:12;73.22;69.56;78.24;;
60872;Laerm;46714;50.118;14.462;2023-07-20T12:55:38;73.67;69.28;78.27;;
60872;Laerm;46714;50.118;14.462;2023-07-20T12:58:04;77.32;69.03;99.31;;
60872;Laerm;46714;50.118;14.462;2023-07-20T13:00:30;73.34;68.65;77.69;;
60872;Laerm;46714;50.118;14.462;2023-07-20T13:02:55;72.84;69.39;79.93;;
60872;Laerm;46714;50.118;14.462;2023-07-20T13:05:21;73.08;68.21;81.06;;
60872;Laerm;46714;50.118;14.462;2023-07-20T13:07:46;73.51;68.67;79.14;;
60872;Laerm;46714;50.118;14.462;2023-07-20T13:10:12;72.57;67.78;77.70;;
60872;Laerm;46714;50.118;14.462;2023-07-20T13:12:38;72.87;69.21;79.74;;
60872;Laerm;46714;50.118;14.462;2023-07-20T13:15:05;73.46;68.47;83.14;;
60872;Laerm;46714;50.118;14.462;2023-07-20T13:17:38;72.75;68.52;82.88;;
60872;Laerm;46714;50.118;14.462;2023-07-20T13:20:06;72.58;68.16;77.48;;
60872;Laerm;46714;50.118;14.462;2023-07-20T13:22:32;74.72;68.58;92.49;;
60872;Laerm;46714;50.118;14.462;2023-07-20T13:24:58;76.76;69.94;92.63;;
60872;Laerm;46714;50.118;14.462;2023-07-20T13:27:23;73.59;67.99;80.87;;
60872;Laerm;46714;50.118;14.462;2023-07-20T13:29:51;73.05;70.01;77.59;;
60872;Laerm;46714;50.118;14.462;2023-07-20T13:32:16;73.37;68.65;81.34;;
60872;Laerm;46714;50.118;14.462;2023-07-20T13:34:43;72.06;67.05;78.49;;
60872;Laerm;46714;50.118;14.462;2023-07-20T13:37:09;75.55;68.72;91.94;;
60872;Laerm;46714;50.118;14.462;2023-07-20T13:39:34;73.46;68.82;79.09;;
60872;Laerm;46714;50.118;14.462;2023-07-20T13:42:00;72.69;68.11;78.36;;
60872;Laerm;46714;50.118;14.462;2023-07-20T13:44:31;76.79;68.20;97.67;;
60872;Laerm;46714;50.118;14.462;2023-07-20T13:46:56;72.18;67.77;80.10;;
60872;Laerm;46714;50.118;14.462;2023-07-20T13:49:21;73.68;68.88;86.73;;